sensor_id;sensor_type;location;lat;lon;timestamp;pressure;altitude;pressure_sealevel;temperature;humidity
6413;BME280;3239;48.714;9.472;2023-02-17T00:01:24;99405.56;;;8.07;100.00
6413;BME280;3239;48.714;9.472;2023-02-17T00:03:51;99387.22;;;8.07;100.00
6413;BME280;3239;48.714;9.472;2023-02-17T00:06:21;99364.63;;;8.07;100.00
6413;BME280;3239;48.714;9.472;2023-02-17T00:08:48;99365.50;;;7.98;100.00
6413;BME280;3239;48.714;9.472;2023-02-17T00:11:24;99355.34;;;7.99;100.00
6413;BME280;3239;48.714;9.472;2023-02-17T00:14:00;99343.75;;;8.04;100.00
6413;BME280;3239;48.714;9.472;2023-02-17T00:16:27;99340.00;;;8.01;100.00
6413;BME280;3239;48.714;9.472;2023-02-17T00:18:57;99320.44;;;8.03;100.00
6413;BME280;3239;48.714;9.472;2023-02-17T00:21:27;99312.72;;;8.01;100.00
6413;BME280;3239;48.714;9.472;2023-02-17T00:23:55;99305.69;;;7.95;100.00
6413;BME280;3239;48.714;9.472;2023-02-17T00:26:21;99305.44;;;7.93;100.00
6413;BME280;3239;48.714;9.472;2023-02-17T00:28:47;99284.44;;;8.04;100.00
6413;BME280;3239;48.714;9.472;2023-02-17T00:31:17;99282.56;;;8.10;100.00
6413;BME280;3239;48.714;9.472;2023-02-17T00:33:43;99266.44;;;8.12;100.00
6413;BME280;3239;48.714;9.472;2023-02-17T00:36:18;99233.19;;;8.34;100.00
6413;BME280;3239;48.714;9.472;2023-02-17T00:38:44;99199.97;;;8.41;100.00
6413;BME280;3239;48.714;9.472;2023-02-17T00:41:12;99186.34;;;8.46;100.00
6413;BME280;3239;48.714;9.472;2023-02-17T00:43:38;99156.63;;;8.54;100.00
6413;BME280;3239;48.714;9.472;2023-02-17T00:46:04;99139.34;;;8.68;100.00
6413;BME280;3239;48.714;9.472;2023-02-17T00:48:30;99108.38;;;8.82;100.00
6413;BME280;3239;48.714;9.472;2023-02-17T00:50:56;99109.81;;;8.72;100.00
6413;BME280;3239;48.714;9.472;2023-02-17T00:53:22;99092.94;;;8.79;100.00
6413;BME280;3239;48.714;9.472;2023-02-17T00:55:47;99093.72;;;8.85;100.00
6413;BME280;3239;48.714;9.472;2023-02-17T00:58:15;99085.03;;;8.86;100.00
6413;BME280;3239;48.714;9.472;2023-02-17T01:00:41;99077.09;;;8.88;100.00
6413;BME280;3239;48.714;9.472;2023-02-17T01:03:07;99074.63;;;8.96;100.00
6413;BME280;3239;48.714;9.472;2023-02-17T01:05:33;99067.47;;;9.04;100.00
6413;BME280;3239;48.714;9.472;2023-02-17T01:07:59;99061.53;;;9.11;100.00
6413;BME280;3239;48.714;9.472;2023-02-17T01:10:24;99057.81;;;9.14;100.00
6413;BME280;3239;48.714;9.472;2023-02-17T01:12:50;99054.09;;;9.17;100.00
6413;BME280;3239;48.714;9.472;2023-02-17T01:15:16;99057.81;;;9.14;100.00
6413;BME280;3239;48.714;9.472;2023-02-17T01:17:42;99054.34;;;9.19;100.00
6413;BME280;3239;48.714;9.472;2023-02-17T01:20:08;99052.34;;;9.19;100.00
6413;BME280;3239;48.714;9.472;2023-02-17T01:22:34;99040.69;;;9.19;100.00
6413;BME280;3239;48.714;9.472;2023-02-17T01:25:00;99042.66;;;9.18;100.00
6413;BME280;3239;48.714;9.472;2023-02-17T01:27:25;99041.69;;;9.21;100.00
6413;BME280;3239;48.714;9.472;2023-02-17T01:29:51;99032.00;;;9.26;100.00
6413;BME280;3239;48.714;9.472;2023-02-17T01:32:17;99032.25;;;9.22;100.00
6413;BME280;3239;48.714;9.472;2023-02-17T01:34:42;99027.75;;;9.19;100.00
6413;BME280;3239;48.714;9.472;2023-02-17T01:37:08;99018.56;;;9.22;100.00
6413;BME280;3239;48.714;9.472;2023-02-17T01:39:34;99017.81;;;9.22;100.00
6413;BME280;3239;48.714;9.472;2023-02-17T01:42:00;99012.34;;;9.22;100.00
6413;BME280;3239;48.714;9.472;2023-02-17T01:44:26;99013.34;;;9.24;100.00
6413;BME280;3239;48.714;9.472;2023-02-17T01:46:54;99011.13;;;9.28;100.00
6413;BME280;3239;48.714;9.472;2023-02-17T01:49:35;98995.22;;;9.32;100.00
6413;BME280;3239;48.714;9.472;2023-02-17T01:52:22;98997.22;;;9.37;100.00
6413;BME280;3239;48.714;9.472;2023-02-17T01:54:58;98997.22;;;9.43;100.00
6413;BME280;3239;48.714;9.472;2023-02-17T01:57:28;98988.28;;;9.42;100.00
6413;BME280;3239;48.714;9.472;2023-02-17T01:59:55;98983.28;;;9.46;100.00
6413;BME280;3239;48.714;9.472;2023-02-17T02:02:21;98989.03;;;9.48;100.00
6413;BME280;3239;48.714;9.472;2023-02-17T02:04:51;98988.03;;;9.46;100.00
6413;BME280;3239;48.714;9.472;2023-02-17T02:07:23;98990.50;;;9.49;100.00
6413;BME280;3239;48.714;9.472;2023-02-17T02:09:56;98985.03;;;9.49;100.00
6413;BME280;3239;48.714;9.472;2023-02-17T02:12:32;98988.78;;;9.52;100.00
6413;BME280;3239;48.714;9.472;2023-02-17T02:15:25;98978.56;;;9.47;100.00
6413;BME280;3239;48.714;9.472;2023-02-17T02:29:03;98971.84;;;9.48;100.00
6413;BME280;3239;48.714;9.472;2023-02-17T02:34:29;98970.63;;;9.43;100.00
6413;BME280;3239;48.714;9.472;2023-02-17T02:37:16;98977.34;;;9.42;100.00
6413;BME280;3239;48.714;9.472;2023-02-17T02:39:47;98969.88;;;9.48;100.00
6413;BME280;3239;48.714;9.472;2023-02-17T02:42:22;98966.88;;;9.52;100.00
6413;BME280;3239;48.714;9.472;2023-02-17T02:44:49;98958.19;;;9.53;100.00
6413;BME280;3239;48.714;9.472;2023-02-17T02:47:54;98959.94;;;9.51;100.00
6413;BME280;3239;48.714;9.472;2023-02-17T02:54:02;98959.94;;;9.51;100.00
6413;BME280;3239;48.714;9.472;2023-02-17T03:02:35;98962.41;;;9.49;100.00
6413;BME280;3239;48.714;9.472;2023-02-17T03:08:36;98955.94;;;9.52;100.00
6413;BME280;3239;48.714;9.472;2023-02-17T03:10:50;98955.94;;;9.52;100.00
6413;BME280;3239;48.714;9.472;2023-02-17T03:13:18;98957.69;;;9.49;100.00
6413;BME280;3239;48.714;9.472;2023-02-17T03:15:45;98957.19;;;9.51;100.00
6413;BME280;3239;48.714;9.472;2023-02-17T03:18:11;98958.19;;;9.48;100.00
6413;BME280;3239;48.714;9.472;2023-02-17T03:20:44;98945.25;;;9.48;100.00
6413;BME280;3239;48.714;9.472;2023-02-17T03:23:13;98947.47;;;9.50;100.00
6413;BME280;3239;48.714;9.472;2023-02-17T03:25:39;98955.69;;;9.50;100.00
6413;BME280;3239;48.714;9.472;2023-02-17T03:28:05;98945.00;;;9.52;100.00
6413;BME280;3239;48.714;9.472;2023-02-17T03:30:31;98947.25;;;9.53;100.00
6413;BME280;3239;48.714;9.472;2023-02-17T03:32:57;98943.00;;;9.52;100.00
6413;BME280;3239;48.714;9.472;2023-02-17T03:35:22;98946.00;;;9.54;100.00
6413;BME280;3239;48.714;9.472;2023-02-17T03:37:48;98948.00;;;9.59;100.00
6413;BME280;3239;48.714;9.472;2023-02-17T03:40:14;98943.25;;;9.60;100.00
6413;BME280;3239;48.714;9.472;2023-02-17T03:42:40;98940.03;;;9.61;100.00
6413;BME280;3239;48.714;9.472;2023-02-17T03:45:06;98941.00;;;9.64;100.00
6413;BME280;3239;48.714;9.472;2023-02-17T03:47:31;98935.78;;;9.60;100.00
6413;BME280;3239;48.714;9.472;2023-02-17T03:49:57;98946.47;;;9.64;100.00
6413;BME280;3239;48.714;9.472;2023-02-17T03:52:23;98946.75;;;9.60;100.00
6413;BME280;3239;48.714;9.472;2023-02-17T03:54:48;98942.75;;;9.67;100.00
6413;BME280;3239;48.714;9.472;2023-02-17T03:57:14;98940.53;;;9.65;100.00
6413;BME280;3239;48.714;9.472;2023-02-17T03:59:40;98948.97;;;9.67;100.00
6413;BME280;3239;48.714;9.472;2023-02-17T04:02:06;98953.19;;;9.68;100.00
6413;BME280;3239;48.714;9.472;2023-02-17T04:04:32;98964.41;;;9.70;100.00
6413;BME280;3239;48.714;9.472;2023-02-17T04:06:57;98963.91;;;9.72;100.00
6413;BME280;3239;48.714;9.472;2023-02-17T04:09:23;98968.63;;;9.71;100.00
6413;BME280;3239;48.714;9.472;2023-02-17T04:11:49;98959.66;;;9.71;100.00
6413;BME280;3239;48.714;9.472;2023-02-17T04:14:14;98966.13;;;9.73;100.00
6413;BME280;3239;48.714;9.472;2023-02-17T04:16:40;98962.66;;;9.67;100.00
6413;BME280;3239;48.714;9.472;2023-02-17T04:19:06;98972.34;;;9.63;100.00
6413;BME280;3239;48.714;9.472;2023-02-17T04:21:33;98975.84;;;9.63;100.00
6413;BME280;3239;48.714;9.472;2023-02-17T04:24:00;98978.06;;;9.65;100.00
6413;BME280;3239;48.714;9.472;2023-02-17T04:26:27;98978.06;;;9.65;100.00
6413;BME280;3239;48.714;9.472;2023-02-17T04:28:53;98991.50;;;9.63;100.00
6413;BME280;3239;48.714;9.472;2023-02-17T04:31:18;98984.56;;;9.62;100.00
6413;BME280;3239;48.714;9.472;2023-02-17T04:33:44;98987.78;;;9.60;100.00
6413;BME280;3239;48.714;9.472;2023-02-17T04:36:10;98990.50;;;9.60;100.00
6413;BME280;3239;48.714;9.472;2023-02-17T04:38:37;98995.22;;;9.60;100.00
6413;BME280;3239;48.714;9.472;2023-02-17T04:41:03;98994.22;;;9.57;100.00
6413;BME280;3239;48.714;9.472;2023-02-17T04:43:30;98980.81;;;9.59;100.00
6413;BME280;3239;48.714;9.472;2023-02-17T04:45:56;98982.31;;;9.60;100.00
6413;BME280;3239;48.714;9.472;2023-02-17T04:48:23;98976.31;;;9.56;100.00
6413;BME280;3239;48.714;9.472;2023-02-17T04:50:49;98968.88;;;9.57;100.00
6413;BME280;3239;48.714;9.472;2023-02-17T04:53:15;98979.31;;;9.58;100.00
6413;BME280;3239;48.714;9.472;2023-02-17T04:55:41;98981.81;;;9.56;100.00
6413;BME280;3239;48.714;9.472;2023-02-17T04:58:08;98973.34;;;9.60;100.00
6413;BME280;3239;48.714;9.472;2023-02-17T05:00:34;98982.81;;;9.64;100.00
6413;BME280;3239;48.714;9.472;2023-02-17T05:03:00;98976.06;;;9.60;100.00
6413;BME280;3239;48.714;9.472;2023-02-17T05:05:26;98973.09;;;9.58;100.00
6413;BME280;3239;48.714;9.472;2023-02-17T05:07:52;98979.56;;;9.60;100.00
6413;BME280;3239;48.714;9.472;2023-02-17T05:10:18;98967.63;;;9.58;100.00
6413;BME280;3239;48.714;9.472;2023-02-17T05:12:44;98957.66;;;9.55;100.00
6413;BME280;3239;48.714;9.472;2023-02-17T05:15:11;98954.94;;;9.55;100.00
6413;BME280;3239;48.714;9.472;2023-02-17T05:17:37;98965.63;;;9.53;100.00
6413;BME280;3239;48.714;9.472;2023-02-17T05:20:08;98959.66;;;9.49;100.00
6413;BME280;3239;48.714;9.472;2023-02-17T05:22:34;98969.13;;;9.53;100.00
6413;BME280;3239;48.714;9.472;2023-02-17T05:25:00;98963.66;;;9.53;100.00
6413;BME280;3239;48.714;9.472;2023-02-17T05:27:25;98960.41;;;9.55;100.00
6413;BME280;3239;48.714;9.472;2023-02-17T05:29:51;98968.88;;;9.57;100.00
6413;BME280;3239;48.714;9.472;2023-02-17T05:32:17;98959.66;;;9.60;100.00
6413;BME280;3239;48.714;9.472;2023-02-17T05:34:43;98960.19;;;9.58;100.00
6413;BME280;3239;48.714;9.472;2023-02-17T05:37:09;98958.94;;;9.59;100.00
6413;BME280;3239;48.714;9.472;2023-02-17T05:39:35;98967.41;;;9.56;100.00
6413;BME280;3239;48.714;9.472;2023-02-17T05:42:01;98965.66;;;9.58;100.00
6413;BME280;3239;48.714;9.472;2023-02-17T05:44:27;98964.91;;;9.58;100.00
6413;BME280;3239;48.714;9.472;2023-02-17T05:46:52;98971.63;;;9.57;100.00
6413;BME280;3239;48.714;9.472;2023-02-17T05:49:18;98963.91;;;9.55;100.00
6413;BME280;3239;48.714;9.472;2023-02-17T05:51:44;98965.38;;;9.56;100.00
6413;BME280;3239;48.714;9.472;2023-02-17T05:54:09;98972.34;;;9.57;100.00
6413;BME280;3239;48.714;9.472;2023-02-17T05:56:35;98973.59;;;9.56;100.00
6413;BME280;3239;48.714;9.472;2023-02-17T05:59:01;98973.09;;;9.58;100.00
6413;BME280;3239;48.714;9.472;2023-02-17T06:01:27;98980.56;;;9.57;100.00
6413;BME280;3239;48.714;9.472;2023-02-17T06:03:52;98983.78;;;9.61;100.00
6413;BME280;3239;48.714;9.472;2023-02-17T06:06:18;98980.06;;;9.59;100.00
6413;BME280;3239;48.714;9.472;2023-02-17T06:08:44;98994.00;;;9.61;100.00
6413;BME280;3239;48.714;9.472;2023-02-17T06:11:10;99001.44;;;9.60;100.00
6413;BME280;3239;48.714;9.472;2023-02-17T06:13:36;98999.94;;;9.65;100.00
6413;BME280;3239;48.714;9.472;2023-02-17T06:16:02;99001.19;;;9.64;100.00
6413;BME280;3239;48.714;9.472;2023-02-17T06:18:29;99004.94;;;9.66;100.00
6413;BME280;3239;48.714;9.472;2023-02-17T06:20:55;99004.94;;;9.66;100.00
6413;BME280;3239;48.714;9.472;2023-02-17T06:23:23;99006.41;;;9.67;100.00
6413;BME280;3239;48.714;9.472;2023-02-17T06:25:49;99009.16;;;9.67;100.00
6413;BME280;3239;48.714;9.472;2023-02-17T06:28:14;99002.22;;;9.72;100.00
6413;BME280;3239;48.714;9.472;2023-02-17T06:30:40;99005.69;;;9.72;100.00
6413;BME280;3239;48.714;9.472;2023-02-17T06:33:07;99006.44;;;9.73;100.00
6413;BME280;3239;48.714;9.472;2023-02-17T06:35:33;99009.44;;;9.69;100.00
6413;BME280;3239;48.714;9.472;2023-02-17T06:37:59;99019.34;;;9.72;100.00
6413;BME280;3239;48.714;9.472;2023-02-17T06:40:26;99026.81;;;9.77;100.00
6413;BME280;3239;48.714;9.472;2023-02-17T06:42:51;99015.63;;;9.75;100.00
6413;BME280;3239;48.714;9.472;2023-02-17T06:45:23;99021.59;;;9.74;100.00
6413;BME280;3239;48.714;9.472;2023-02-17T06:47:49;99021.59;;;9.74;100.00
6413;BME280;3239;48.714;9.472;2023-02-17T06:50:15;99025.59;;;9.73;100.00
6413;BME280;3239;48.714;9.472;2023-02-17T06:52:41;99019.09;;;9.76;100.00
6413;BME280;3239;48.714;9.472;2023-02-17T06:55:09;99029.56;;;9.77;100.00
6413;BME280;3239;48.714;9.472;2023-02-17T06:57:35;99017.38;;;9.78;100.00
6413;BME280;3239;48.714;9.472;2023-02-17T07:00:01;99028.31;;;9.84;100.00
6413;BME280;3239;48.714;9.472;2023-02-17T07:02:29;99029.09;;;9.84;100.00
6413;BME280;3239;48.714;9.472;2023-02-17T07:04:54;99023.84;;;9.86;100.00
6413;BME280;3239;48.714;9.472;2023-02-17T07:07:20;99026.59;;;9.86;100.00
6413;BME280;3239;48.714;9.472;2023-02-17T07:09:46;99038.53;;;9.89;100.00
6413;BME280;3239;48.714;9.472;2023-02-17T07:12:11;99029.81;;;9.90;100.00
6413;BME280;3239;48.714;9.472;2023-02-17T07:14:37;99034.78;;;9.92;100.00
6413;BME280;3239;48.714;9.472;2023-02-17T07:17:03;99039.28;;;9.95;100.00
6413;BME280;3239;48.714;9.472;2023-02-17T07:19:29;99030.56;;;9.91;100.00
6413;BME280;3239;48.714;9.472;2023-02-17T07:21:55;99045.00;;;9.86;100.00
6413;BME280;3239;48.714;9.472;2023-02-17T07:24:21;99044.75;;;9.84;100.00
6413;BME280;3239;48.714;9.472;2023-02-17T07:26:46;99045.50;;;9.84;100.00
6413;BME280;3239;48.714;9.472;2023-02-17T07:29:12;99052.97;;;9.84;100.00
6413;BME280;3239;48.714;9.472;2023-02-17T07:31:38;99052.72;;;9.87;100.00
6413;BME280;3239;48.714;9.472;2023-02-17T07:34:04;99046.97;;;9.91;100.00
6413;BME280;3239;48.714;9.472;2023-02-17T07:36:30;99055.94;;;9.97;100.00
6413;BME280;3239;48.714;9.472;2023-02-17T07:38:56;99052.97;;;9.95;100.00
6413;BME280;3239;48.714;9.472;2023-02-17T07:41:23;99054.19;;;9.99;100.00
6413;BME280;3239;48.714;9.472;2023-02-17T07:43:53;99055.97;;;10.13;100.00
6413;BME280;3239;48.714;9.472;2023-02-17T07:46:19;99052.97;;;10.17;100.00
6413;BME280;3239;48.714;9.472;2023-02-17T07:48:46;99046.75;;;10.22;100.00
6413;BME280;3239;48.714;9.472;2023-02-17T07:51:18;99041.25;;;10.33;100.00
6413;BME280;3239;48.714;9.472;2023-02-17T07:53:45;99046.72;;;10.38;100.00
6413;BME280;3239;48.714;9.472;2023-02-17T07:56:17;99037.50;;;10.36;100.00
6413;BME280;3239;48.714;9.472;2023-02-17T07:58:44;99041.97;;;10.44;100.00
6413;BME280;3239;48.714;9.472;2023-02-17T08:01:18;99037.72;;;10.54;100.00
6413;BME280;3239;48.714;9.472;2023-02-17T08:03:45;99039.69;;;10.59;100.00
6413;BME280;3239;48.714;9.472;2023-02-17T08:06:18;99039.66;;;10.70;100.00
6413;BME280;3239;48.714;9.472;2023-02-17T08:08:44;99046.81;;;10.84;100.00
6413;BME280;3239;48.714;9.472;2023-02-17T08:11:29;99045.31;;;10.83;100.00
6413;BME280;3239;48.714;9.472;2023-02-17T08:14:14;99043.31;;;10.89;100.00
6413;BME280;3239;48.714;9.472;2023-02-17T08:16:40;99048.06;;;10.83;100.00
6413;BME280;3239;48.714;9.472;2023-02-17T08:19:06;99044.34;;;10.81;100.00
6413;BME280;3239;48.714;9.472;2023-02-17T08:21:31;99036.88;;;10.81;100.00
6413;BME280;3239;48.714;9.472;2023-02-17T08:23:57;99044.06;;;10.84;100.00
6413;BME280;3239;48.714;9.472;2023-02-17T08:26:24;99038.34;;;10.88;100.00
6413;BME280;3239;48.714;9.472;2023-02-17T08:28:50;99036.81;;;10.92;100.00
6413;BME280;3239;48.714;9.472;2023-02-17T08:31:36;99052.25;;;11.01;100.00
6413;BME280;3239;48.714;9.472;2023-02-17T08:34:07;99041.66;;;11.21;100.00
6413;BME280;3239;48.714;9.472;2023-02-17T08:36:34;99041.22;;;11.52;100.00
6413;BME280;3239;48.714;9.472;2023-02-17T08:39:03;99023.50;;;11.59;100.00
6413;BME280;3239;48.714;9.472;2023-02-17T08:41:35;99037.59;;;12.09;100.00
6413;BME280;3239;48.714;9.472;2023-02-17T08:44:10;99029.69;;;12.48;100.00
6413;BME280;3239;48.714;9.472;2023-02-17T08:46:37;99019.53;;;12.85;100.00
6413;BME280;3239;48.714;9.472;2023-02-17T08:49:04;99016.38;;;12.76;100.00
6413;BME280;3239;48.714;9.472;2023-02-17T08:51:31;99005.63;;;12.54;100.00
6413;BME280;3239;48.714;9.472;2023-02-17T08:53:59;98998.78;;;12.42;100.00
6413;BME280;3239;48.714;9.472;2023-02-17T08:56:26;99023.91;;;12.51;100.00
6413;BME280;3239;48.714;9.472;2023-02-17T08:58:52;99024.59;;;12.57;100.00
6413;BME280;3239;48.714;9.472;2023-02-17T09:01:19;99007.47;;;12.88;100.00
6413;BME280;3239;48.714;9.472;2023-02-17T09:03:47;99008.97;;;13.45;100.00
6413;BME280;3239;48.714;9.472;2023-02-17T09:06:14;99010.63;;;13.16;100.00
6413;BME280;3239;48.714;9.472;2023-02-17T09:08:41;99013.69;;;13.31;100.00
6413;BME280;3239;48.714;9.472;2023-02-17T09:11:08;99011.59;;;13.37;100.00
6413;BME280;3239;48.714;9.472;2023-02-17T09:13:34;99012.47;;;13.45;100.00
6413;BME280;3239;48.714;9.472;2023-02-17T09:16:00;99016.28;;;13.24;100.00
6413;BME280;3239;48.714;9.472;2023-02-17T09:18:26;99020.19;;;12.73;100.00
6413;BME280;3239;48.714;9.472;2023-02-17T09:20:52;99017.97;;;12.90;100.00
6413;BME280;3239;48.714;9.472;2023-02-17T09:23:18;99031.75;;;12.66;100.00
6413;BME280;3239;48.714;9.472;2023-02-17T09:25:44;99022.44;;;12.50;100.00
6413;BME280;3239;48.714;9.472;2023-02-17T09:28:10;99022.06;;;12.35;100.00
6413;BME280;3239;48.714;9.472;2023-02-17T09:30:39;99016.47;;;12.46;100.00
6413;BME280;3239;48.714;9.472;2023-02-17T09:33:05;99037.19;;;12.23;100.00
6413;BME280;3239;48.714;9.472;2023-02-17T09:35:31;99037.69;;;12.22;100.00
6413;BME280;3239;48.714;9.472;2023-02-17T09:37:58;99038.72;;;12.19;100.00
6413;BME280;3239;48.714;9.472;2023-02-17T09:43:14;99048.59;;;12.03;100.00
6413;BME280;3239;48.714;9.472;2023-02-17T09:45:45;99062.47;;;11.87;100.00
6413;BME280;3239;48.714;9.472;2023-02-17T09:48:17;99089.47;;;11.83;100.00
6413;BME280;3239;48.714;9.472;2023-02-17T09:51:00;99083.94;;;11.88;100.00
6413;BME280;3239;48.714;9.472;2023-02-17T09:53:41;99106.88;;;11.91;100.00
6413;BME280;3239;48.714;9.472;2023-02-17T09:56:15;99098.13;;;11.92;100.00
6413;BME280;3239;48.714;9.472;2023-02-17T09:58:58;99101.38;;;11.91;100.00
6413;BME280;3239;48.714;9.472;2023-02-17T10:01:30;99103.56;;;11.98;100.00
6413;BME280;3239;48.714;9.472;2023-02-17T10:04:21;99103.81;;;12.00;100.00
6413;BME280;3239;48.714;9.472;2023-02-17T10:06:58;99114.72;;;12.11;100.00
6413;BME280;3239;48.714;9.472;2023-02-17T10:09:38;99098.66;;;12.20;100.00
6413;BME280;3239;48.714;9.472;2023-02-17T10:12:20;99101.41;;;12.20;100.00
6413;BME280;3239;48.714;9.472;2023-02-17T10:14:58;99099.81;;;12.30;100.00
6413;BME280;3239;48.714;9.472;2023-02-17T10:20:21;99102.06;;;12.32;100.00
6413;BME280;3239;48.714;9.472;2023-02-17T10:23:17;99090.09;;;12.29;100.00
6413;BME280;3239;48.714;9.472;2023-02-17T10:31:46;99105.97;;;12.66;100.00
6413;BME280;3239;48.714;9.472;2023-02-17T10:34:41;99099.75;;;12.65;100.00
6413;BME280;3239;48.714;9.472;2023-02-17T10:40:28;99095.09;;;12.79;100.00
6413;BME280;3239;48.714;9.472;2023-02-17T10:42:59;99090.41;;;12.74;100.00
6413;BME280;3239;48.714;9.472;2023-02-17T10:45:37;99086.72;;;12.66;100.00
6413;BME280;3239;48.714;9.472;2023-02-17T10:48:15;99088.63;;;12.76;100.00
6413;BME280;3239;48.714;9.472;2023-02-17T10:50:43;99073.59;;;12.77;100.00
6413;BME280;3239;48.714;9.472;2023-02-17T10:53:21;99080.31;;;12.82;100.00
6413;BME280;3239;48.714;9.472;2023-02-17T10:56:09;99075.16;;;12.97;100.00
6413;BME280;3239;48.714;9.472;2023-02-17T11:01:11;99066.56;;;13.43;100.00
6413;BME280;3239;48.714;9.472;2023-02-17T11:03:38;99063.88;;;13.56;100.00
6413;BME280;3239;48.714;9.472;2023-02-17T11:06:21;99061.28;;;13.45;100.00
6413;BME280;3239;48.714;9.472;2023-02-17T11:11:23;99052.94;;;13.69;100.00
6413;BME280;3239;48.714;9.472;2023-02-17T11:16:44;99045.72;;;13.47;100.00
6413;BME280;3239;48.714;9.472;2023-02-17T11:19:23;99055.56;;;13.43;100.00
6413;BME280;3239;48.714;9.472;2023-02-17T11:21:55;99054.50;;;13.64;100.00
6413;BME280;3239;48.714;9.472;2023-02-17T11:24:23;99057.69;;;13.50;100.00
6413;BME280;3239;48.714;9.472;2023-02-17T11:27:10;99061.44;;;14.15;100.00
6413;BME280;3239;48.714;9.472;2023-02-17T11:29:36;99037.66;;;14.44;100.00
6413;BME280;3239;48.714;9.472;2023-02-17T11:32:10;99032.41;;;14.14;100.00
6413;BME280;3239;48.714;9.472;2023-02-17T11:34:40;99015.50;;;14.62;100.00
6413;BME280;3239;48.714;9.472;2023-02-17T11:39:43;99018.78;;;14.61;100.00
6413;BME280;3239;48.714;9.472;2023-02-17T11:42:20;99018.88;;;14.29;100.00
6413;BME280;3239;48.714;9.472;2023-02-17T11:44:46;99015.22;;;14.08;100.00
6413;BME280;3239;48.714;9.472;2023-02-17T11:47:37;99007.28;;;14.05;100.00
6413;BME280;3239;48.714;9.472;2023-02-17T11:50:16;99023.63;;;13.84;100.00
6413;BME280;3239;48.714;9.472;2023-02-17T11:52:52;99018.25;;;13.92;100.00
6413;BME280;3239;48.714;9.472;2023-02-17T12:10:27;99056.44;;;13.14;100.00
6413;BME280;3239;48.714;9.472;2023-02-17T12:16:55;99088.88;;;13.02;100.00
6413;BME280;3239;48.714;9.472;2023-02-17T12:23:07;99096.41;;;12.72;100.00
6413;BME280;3239;48.714;9.472;2023-02-17T12:29:07;99103.22;;;12.66;100.00
6413;BME280;3239;48.714;9.472;2023-02-17T12:31:59;99091.19;;;12.69;100.00
6413;BME280;3239;48.714;9.472;2023-02-17T12:34:43;99096.13;;;12.76;100.00
6413;BME280;3239;48.714;9.472;2023-02-17T12:37:44;99097.91;;;12.73;100.00
6413;BME280;3239;48.714;9.472;2023-02-17T12:41:03;99087.88;;;12.76;100.00
6413;BME280;3239;48.714;9.472;2023-02-17T12:43:57;99100.13;;;12.75;100.00
6413;BME280;3239;48.714;9.472;2023-02-17T12:46:42;99082.88;;;12.74;100.00
6413;BME280;3239;48.714;9.472;2023-02-17T12:49:36;99084.22;;;12.68;100.00
6413;BME280;3239;48.714;9.472;2023-02-17T12:52:25;99081.09;;;12.77;100.00
6413;BME280;3239;48.714;9.472;2023-02-17T12:58:06;99075.59;;;12.77;100.00
6413;BME280;3239;48.714;9.472;2023-02-17T13:00:38;99085.47;;;12.91;100.00
6413;BME280;3239;48.714;9.472;2023-02-17T13:03:07;99078.94;;;12.94;100.00
6413;BME280;3239;48.714;9.472;2023-02-17T13:08:42;99063.28;;;13.07;100.00
6413;BME280;3239;48.714;9.472;2023-02-17T13:11:24;99059.78;;;13.07;100.00
6413;BME280;3239;48.714;9.472;2023-02-17T13:13:50;99056.81;;;13.05;100.00
6413;BME280;3239;48.714;9.472;2023-02-17T13:16:16;99055.19;;;13.15;100.00
6413;BME280;3239;48.714;9.472;2023-02-17T13:18:45;99052.81;;;13.24;100.00
6413;BME280;3239;48.714;9.472;2023-02-17T13:21:32;99053.16;;;13.34;100.00
6413;BME280;3239;48.714;9.472;2023-02-17T13:26:49;99047.09;;;13.22;100.00
6413;BME280;3239;48.714;9.472;2023-02-17T13:29:33;99048.19;;;13.14;100.00
6413;BME280;3239;48.714;9.472;2023-02-17T13:32:07;99052.44;;;13.15;100.00
6413;BME280;3239;48.714;9.472;2023-02-17T13:34:44;99052.97;;;13.13;100.00
6413;BME280;3239;48.714;9.472;2023-02-17T13:37:39;99049.16;;;13.16;100.00
6413;BME280;3239;48.714;9.472;2023-02-17T13:42:56;99049.91;;;13.17;100.00
6413;BME280;3239;48.714;9.472;2023-02-17T13:45:48;99041.28;;;13.26;100.00
6413;BME280;3239;48.714;9.472;2023-02-17T13:48:32;99045.97;;;13.31;100.00
6413;BME280;3239;48.714;9.472;2023-02-17T13:51:01;99049.75;;;13.28;100.00
6413;BME280;3239;48.714;9.472;2023-02-17T13:53:36;99042.97;;;13.29;100.00
6413;BME280;3239;48.714;9.472;2023-02-17T13:56:08;99046.03;;;13.25;100.00
6413;BME280;3239;48.714;9.472;2023-02-17T13:58:40;99035.94;;;13.33;100.00
6413;BME280;3239;48.714;9.472;2023-02-17T14:01:13;99039.19;;;13.32;100.00
6413;BME280;3239;48.714;9.472;2023-02-17T14:03:42;99034.97;;;13.31;100.00
6413;BME280;3239;48.714;9.472;2023-02-17T14:06:27;99042.16;;;13.34;100.00
6413;BME280;3239;48.714;9.472;2023-02-17T14:08:55;99033.59;;;13.37;100.00
6413;BME280;3239;48.714;9.472;2023-02-17T14:11:27;99028.47;;;13.47;100.00
6413;BME280;3239;48.714;9.472;2023-02-17T14:13:55;99033.31;;;13.41;100.00
6413;BME280;3239;48.714;9.472;2023-02-17T14:19:15;99014.38;;;13.69;100.00
6413;BME280;3239;48.714;9.472;2023-02-17T14:24:31;99011.94;;;13.65;100.00
6413;BME280;3239;48.714;9.472;2023-02-17T14:27:17;99022.53;;;13.74;100.00
6413;BME280;3239;48.714;9.472;2023-02-17T14:29:46;99000.06;;;14.15;100.00
6413;BME280;3239;48.714;9.472;2023-02-17T14:32:34;98998.63;;;13.82;100.00
6413;BME280;3239;48.714;9.472;2023-02-17T14:37:42;99002.28;;;14.16;100.00
6413;BME280;3239;48.714;9.472;2023-02-17T14:40:22;99006.34;;;14.93;100.00
6413;BME280;3239;48.714;9.472;2023-02-17T14:42:49;98974.31;;;14.64;100.00
6413;BME280;3239;48.714;9.472;2023-02-17T14:45:16;98970.75;;;14.56;100.00
6413;BME280;3239;48.714;9.472;2023-02-17T14:47:44;98977.41;;;14.74;100.00
6413;BME280;3239;48.714;9.472;2023-02-17T14:50:12;98968.94;;;14.59;100.00
6413;BME280;3239;48.714;9.472;2023-02-17T14:52:43;98973.28;;;15.14;100.00
6413;BME280;3239;48.714;9.472;2023-02-17T14:55:37;98953.19;;;15.88;100.00
6413;BME280;3239;48.714;9.472;2023-02-17T14:58:03;98940.53;;;15.92;100.00
6413;BME280;3239;48.714;9.472;2023-02-17T15:00:30;98953.63;;;15.51;100.00
6413;BME280;3239;48.714;9.472;2023-02-17T15:02:56;98955.88;;;14.72;100.00
6413;BME280;3239;48.714;9.472;2023-02-17T15:05:22;98965.22;;;14.43;100.00
6413;BME280;3239;48.714;9.472;2023-02-17T15:07:48;98963.38;;;14.07;100.00
6413;BME280;3239;48.714;9.472;2023-02-17T15:10:23;98977.94;;;14.72;100.00
6413;BME280;3239;48.714;9.472;2023-02-17T15:12:50;98961.03;;;15.56;100.00